sensor_id;sensor_type;location;lat;lon;timestamp;P1;P2;P0
35654;PMS1003;21773;50.010;19.972;2024-01-30T00:00:02;49.00;40.00;30.40
35654;PMS1003;21773;50.010;19.972;2024-01-30T00:03:07;52.50;41.50;31.00
35654;PMS1003;21773;50.010;19.972;2024-01-30T00:06:10;48.00;40.00;30.00
35654;PMS1003;21773;50.010;19.972;2024-01-30T00:09:15;51.60;41.80;30.80
35654;PMS1003;21773;50.010;19.972;2024-01-30T00:12:18;49.60;40.00;30.00
35654;PMS1003;21773;50.010;19.972;2024-01-30T00:15:21;47.80;39.00;30.00
35654;PMS1003;21773;50.010;19.972;2024-01-30T00:18:24;47.50;39.75;30.00
35654;PMS1003;21773;50.010;19.972;2024-01-30T00:21:27;52.00;40.00;30.00
35654;PMS1003;21773;50.010;19.972;2024-01-30T00:24:32;46.00;37.80;28.80
35654;PMS1003;21773;50.010;19.972;2024-01-30T00:27:35;51.40;42.20;31.00
35654;PMS1003;21773;50.010;19.972;2024-01-30T00:30:38;50.00;40.00;30.00
35654;PMS1003;21773;50.010;19.972;2024-01-30T00:33:41;52.80;42.00;31.20
35654;PMS1003;21773;50.010;19.972;2024-01-30T00:36:45;51.20;41.00;31.00
35654;PMS1003;21773;50.010;19.972;2024-01-30T00:39:49;51.00;41.00;31.00
35654;PMS1003;21773;50.010;19.972;2024-01-30T00:42:52;52.80;42.00;31.40
35654;PMS1003;21773;50.010;19.972;2024-01-30T00:45:56;49.20;39.20;30.00
35654;PMS1003;21773;50.010;19.972;2024-01-30T00:48:59;51.00;42.00;31.60
35654;PMS1003;21773;50.010;19.972;2024-01-30T00:52:03;52.00;42.00;31.00
35654;PMS1003;21773;50.010;19.972;2024-01-30T00:55:07;45.60;38.00;28.60
35654;PMS1003;21773;50.010;19.972;2024-01-30T00:58:11;52.60;41.60;31.00
35654;PMS1003;21773;50.010;19.972;2024-01-30T01:01:14;51.00;41.00;31.00
35654;PMS1003;21773;50.010;19.972;2024-01-30T01:04:20;52.00;42.00;31.50
35654;PMS1003;21773;50.010;19.972;2024-01-30T01:07:24;52.00;42.00;31.80
35654;PMS1003;21773;50.010;19.972;2024-01-30T01:10:28;53.00;42.00;31.00
35654;PMS1003;21773;50.010;19.972;2024-01-30T01:13:31;53.40;43.00;32.00
35654;PMS1003;21773;50.010;19.972;2024-01-30T01:16:35;53.00;42.80;32.20
35654;PMS1003;21773;50.010;19.972;2024-01-30T01:19:39;50.00;41.00;31.00
35654;PMS1003;21773;50.010;19.972;2024-01-30T01:22:42;51.50;42.00;31.00
35654;PMS1003;21773;50.010;19.972;2024-01-30T01:25:47;53.00;42.00;31.00
35654;PMS1003;21773;50.010;19.972;2024-01-30T01:28:50;53.00;43.00;31.75
35654;PMS1003;21773;50.010;19.972;2024-01-30T01:31:53;53.20;42.80;32.00
35654;PMS1003;21773;50.010;19.972;2024-01-30T01:34:56;51.80;41.80;31.00
35654;PMS1003;21773;50.010;19.972;2024-01-30T01:37:59;52.20;42.00;31.60
35654;PMS1003;21773;50.010;19.972;2024-01-30T01:41:04;53.00;41.00;31.00
35654;PMS1003;21773;50.010;19.972;2024-01-30T01:44:07;53.25;43.00;32.75
35654;PMS1003;21773;50.010;19.972;2024-01-30T01:47:10;52.25;41.00;31.00
35654;PMS1003;21773;50.010;19.972;2024-01-30T01:50:13;48.75;39.75;29.00
35654;PMS1003;21773;50.010;19.972;2024-01-30T01:53:20;47.20;38.40;28.60
35654;PMS1003;21773;50.010;19.972;2024-01-30T01:56:25;48.00;39.60;30.00
35654;PMS1003;21773;50.010;19.972;2024-01-30T01:59:29;50.00;41.00;31.00
35654;PMS1003;21773;50.010;19.972;2024-01-30T02:02:34;51.20;40.00;30.00
35654;PMS1003;21773;50.010;19.972;2024-01-30T02:05:38;53.00;43.00;32.00
35654;PMS1003;21773;50.010;19.972;2024-01-30T02:08:43;54.60;44.00;32.00
35654;PMS1003;21773;50.010;19.972;2024-01-30T02:11:48;52.50;42.00;31.50
35654;PMS1003;21773;50.010;19.972;2024-01-30T02:14:51;53.40;42.40;31.20
35654;PMS1003;21773;50.010;19.972;2024-01-30T02:17:56;50.80;40.00;30.00
35654;PMS1003;21773;50.010;19.972;2024-01-30T02:20:59;49.00;39.00;30.00
35654;PMS1003;21773;50.010;19.972;2024-01-30T02:24:07;50.00;40.00;29.00
35654;PMS1003;21773;50.010;19.972;2024-01-30T02:27:10;49.60;39.20;29.60
35654;PMS1003;21773;50.010;19.972;2024-01-30T02:30:13;45.60;38.00;28.00
35654;PMS1003;21773;50.010;19.972;2024-01-30T02:33:16;50.00;39.75;30.00
35654;PMS1003;21773;50.010;19.972;2024-01-30T02:36:21;50.00;40.00;30.00
35654;PMS1003;21773;50.010;19.972;2024-01-30T02:39:24;49.80;40.00;29.00
35654;PMS1003;21773;50.010;19.972;2024-01-30T02:42:27;48.25;40.00;30.00
35654;PMS1003;21773;50.010;19.972;2024-01-30T02:45:31;49.00;39.00;29.20
35654;PMS1003;21773;50.010;19.972;2024-01-30T02:48:34;47.60;40.00;30.00
35654;PMS1003;21773;50.010;19.972;2024-01-30T02:51:38;49.00;38.60;28.00
35654;PMS1003;21773;50.010;19.972;2024-01-30T02:54:41;51.00;41.00;30.00
35654;PMS1003;21773;50.010;19.972;2024-01-30T02:57:45;52.00;42.00;31.40
35654;PMS1003;21773;50.010;19.972;2024-01-30T03:00:48;51.00;40.00;29.75
35654;PMS1003;21773;50.010;19.972;2024-01-30T03:03:51;51.60;41.40;31.20
35654;PMS1003;21773;50.010;19.972;2024-01-30T03:06:56;47.50;38.00;28.75
35654;PMS1003;21773;50.010;19.972;2024-01-30T03:09:59;51.60;42.00;31.00
35654;PMS1003;21773;50.010;19.972;2024-01-30T03:13:02;54.40;44.00;32.60
35654;PMS1003;21773;50.010;19.972;2024-01-30T03:16:06;51.00;42.00;32.00
35654;PMS1003;21773;50.010;19.972;2024-01-30T03:19:11;51.80;42.00;31.00
35654;PMS1003;21773;50.010;19.972;2024-01-30T03:22:15;51.00;41.40;31.00
35654;PMS1003;21773;50.010;19.972;2024-01-30T03:25:19;53.00;44.00;33.00
35654;PMS1003;21773;50.010;19.972;2024-01-30T03:28:22;51.00;41.00;31.00
35654;PMS1003;21773;50.010;19.972;2024-01-30T03:31:25;52.50;41.50;31.00
35654;PMS1003;21773;50.010;19.972;2024-01-30T03:34:28;50.00;40.00;30.00
35654;PMS1003;21773;50.010;19.972;2024-01-30T03:37:33;55.25;43.75;32.00
35654;PMS1003;21773;50.010;19.972;2024-01-30T03:40:36;53.00;42.67;31.67
35654;PMS1003;21773;50.010;19.972;2024-01-30T03:43:40;51.50;42.00;31.50
35654;PMS1003;21773;50.010;19.972;2024-01-30T03:46:43;54.60;44.00;33.00
35654;PMS1003;21773;50.010;19.972;2024-01-30T03:49:46;52.50;42.50;31.50
35654;PMS1003;21773;50.010;19.972;2024-01-30T03:52:51;54.40;44.20;33.00
35654;PMS1003;21773;50.010;19.972;2024-01-30T03:55:54;50.00;40.60;30.00
35654;PMS1003;21773;50.010;19.972;2024-01-30T03:58:57;56.00;44.40;33.00
35654;PMS1003;21773;50.010;19.972;2024-01-30T04:02:02;55.00;44.00;32.40
35654;PMS1003;21773;50.010;19.972;2024-01-30T04:05:06;53.00;41.60;31.00
35654;PMS1003;21773;50.010;19.972;2024-01-30T04:08:11;47.00;38.00;29.00
35654;PMS1003;21773;50.010;19.972;2024-01-30T04:11:14;50.80;41.20;30.00
35654;PMS1003;21773;50.010;19.972;2024-01-30T04:14:17;48.00;38.80;28.80
35654;PMS1003;21773;50.010;19.972;2024-01-30T04:17:20;51.25;41.25;31.00
35654;PMS1003;21773;50.010;19.972;2024-01-30T04:20:23;49.40;40.40;31.00
35654;PMS1003;21773;50.010;19.972;2024-01-30T04:23:28;47.00;38.60;29.40
35654;PMS1003;21773;50.010;19.972;2024-01-30T04:26:31;51.60;41.80;31.00
35654;PMS1003;21773;50.010;19.972;2024-01-30T04:29:34;48.00;38.00;28.00
35654;PMS1003;21773;50.010;19.972;2024-01-30T04:32:37;48.20;39.00;29.00
35654;PMS1003;21773;50.010;19.972;2024-01-30T04:35:40;47.40;38.00;29.00
35654;PMS1003;21773;50.010;19.972;2024-01-30T04:38:45;44.60;35.00;27.00
35654;PMS1003;21773;50.010;19.972;2024-01-30T04:41:48;44.00;36.00;27.00
35654;PMS1003;21773;50.010;19.972;2024-01-30T04:44:51;49.25;38.25;29.00
35654;PMS1003;21773;50.010;19.972;2024-01-30T04:47:54;49.40;38.00;29.00
35654;PMS1003;21773;50.010;19.972;2024-01-30T04:50:57;45.00;37.00;27.60
35654;PMS1003;21773;50.010;19.972;2024-01-30T04:54:06;44.80;36.40;26.80
35654;PMS1003;21773;50.010;19.972;2024-01-30T04:57:09;44.60;36.00;27.00
35654;PMS1003;21773;50.010;19.972;2024-01-30T05:00:14;45.20;37.80;28.00
35654;PMS1003;21773;50.010;19.972;2024-01-30T05:03:17;46.20;36.60;27.60
35654;PMS1003;21773;50.010;19.972;2024-01-30T05:06:24;46.75;38.00;29.00
35654;PMS1003;21773;50.010;19.972;2024-01-30T05:09:29;52.00;42.00;30.60
35654;PMS1003;21773;50.010;19.972;2024-01-30T05:12:32;47.20;37.20;27.20
35654;PMS1003;21773;50.010;19.972;2024-01-30T05:15:35;50.00;40.00;29.00
35654;PMS1003;21773;50.010;19.972;2024-01-30T05:18:38;46.00;38.00;28.00
35654;PMS1003;21773;50.010;19.972;2024-01-30T05:21:42;49.25;40.25;30.25
35654;PMS1003;21773;50.010;19.972;2024-01-30T05:24:46;52.20;42.00;31.20
35654;PMS1003;21773;50.010;19.972;2024-01-30T05:27:50;51.25;40.25;30.00
35654;PMS1003;21773;50.010;19.972;2024-01-30T05:30:53;54.00;43.20;32.00
35654;PMS1003;21773;50.010;19.972;2024-01-30T05:33:56;50.00;42.00;31.00
35654;PMS1003;21773;50.010;19.972;2024-01-30T05:36:59;52.80;42.60;31.80
35654;PMS1003;21773;50.010;19.972;2024-01-30T05:40:04;53.00;41.80;31.40
35654;PMS1003;21773;50.010;19.972;2024-01-30T05:43:08;49.00;40.00;31.00
35654;PMS1003;21773;50.010;19.972;2024-01-30T05:46:12;55.20;43.40;31.40
35654;PMS1003;21773;50.010;19.972;2024-01-30T05:49:15;53.80;42.20;31.20
35654;PMS1003;21773;50.010;19.972;2024-01-30T05:52:18;53.20;41.80;31.00
35654;PMS1003;21773;50.010;19.972;2024-01-30T05:55:23;53.75;43.00;32.00
35654;PMS1003;21773;50.010;19.972;2024-01-30T05:58:26;56.20;44.20;32.80
35654;PMS1003;21773;50.010;19.972;2024-01-30T06:01:29;57.40;44.20;33.00
35654;PMS1003;21773;50.010;19.972;2024-01-30T06:04:32;53.00;44.00;33.00
35654;PMS1003;21773;50.010;19.972;2024-01-30T06:07:36;50.40;42.00;30.60
35654;PMS1003;21773;50.010;19.972;2024-01-30T06:10:40;51.60;41.00;31.00
35654;PMS1003;21773;50.010;19.972;2024-01-30T06:13:44;52.25;41.00;30.00
35654;PMS1003;21773;50.010;19.972;2024-01-30T06:16:47;57.60;43.00;31.00
35654;PMS1003;21773;50.010;19.972;2024-01-30T06:19:50;55.00;44.00;33.00
35654;PMS1003;21773;50.010;19.972;2024-01-30T06:22:53;52.00;41.00;30.00
35654;PMS1003;21773;50.010;19.972;2024-01-30T06:25:58;54.00;43.00;31.00
35654;PMS1003;21773;50.010;19.972;2024-01-30T06:29:01;51.60;41.00;30.00
35654;PMS1003;21773;50.010;19.972;2024-01-30T06:32:04;50.60;41.00;30.60
35654;PMS1003;21773;50.010;19.972;2024-01-30T06:35:08;53.40;42.40;31.00
35654;PMS1003;21773;50.010;19.972;2024-01-30T06:38:12;50.67;41.00;30.00
35654;PMS1003;21773;50.010;19.972;2024-01-30T06:41:18;48.50;40.00;30.00
35654;PMS1003;21773;50.010;19.972;2024-01-30T06:44:24;50.50;40.50;30.00
35654;PMS1003;21773;50.010;19.972;2024-01-30T06:47:29;50.00;40.00;29.25
35654;PMS1003;21773;50.010;19.972;2024-01-30T06:50:32;46.80;38.00;28.20
35654;PMS1003;21773;50.010;19.972;2024-01-30T06:53:36;45.60;37.60;28.60
35654;PMS1003;21773;50.010;19.972;2024-01-30T06:56:40;47.00;39.00;29.00
35654;PMS1003;21773;50.010;19.972;2024-01-30T06:59:43;49.20;40.00;30.00
35654;PMS1003;21773;50.010;19.972;2024-01-30T07:02:46;49.00;39.20;29.00
35654;PMS1003;21773;50.010;19.972;2024-01-30T07:05:49;46.80;38.40;28.40
35654;PMS1003;21773;50.010;19.972;2024-01-30T07:08:53;51.60;41.60;30.40
35654;PMS1003;21773;50.010;19.972;2024-01-30T07:11:57;48.00;38.60;28.60
35654;PMS1003;21773;50.010;19.972;2024-01-30T07:15:01;46.20;37.80;27.80
35654;PMS1003;21773;50.010;19.972;2024-01-30T07:18:05;46.50;38.00;28.00
35654;PMS1003;21773;50.010;19.972;2024-01-30T07:21:09;47.50;38.00;28.00
35654;PMS1003;21773;50.010;19.972;2024-01-30T07:24:12;47.75;39.00;29.50
35654;PMS1003;21773;50.010;19.972;2024-01-30T07:27:17;46.00;38.00;28.60
35654;PMS1003;21773;50.010;19.972;2024-01-30T07:30:20;42.40;35.00;27.00
35654;PMS1003;21773;50.010;19.972;2024-01-30T07:33:23;43.00;35.80;28.00
35654;PMS1003;21773;50.010;19.972;2024-01-30T07:36:26;47.00;37.60;28.60
35654;PMS1003;21773;50.010;19.972;2024-01-30T07:39:30;50.40;40.40;29.60
35654;PMS1003;21773;50.010;19.972;2024-01-30T07:42:34;51.40;42.00;31.00
35654;PMS1003;21773;50.010;19.972;2024-01-30T07:45:37;51.20;41.00;30.80
35654;PMS1003;21773;50.010;19.972;2024-01-30T07:48:40;49.75;41.75;31.00
35654;PMS1003;21773;50.010;19.972;2024-01-30T07:51:44;52.20;42.00;31.00
35654;PMS1003;21773;50.010;19.972;2024-01-30T07:54:49;52.00;42.00;31.00
35654;PMS1003;21773;50.010;19.972;2024-01-30T07:57:53;51.80;41.00;31.00
35654;PMS1003;21773;50.010;19.972;2024-01-30T08:00:57;52.80;42.00;31.00
35654;PMS1003;21773;50.010;19.972;2024-01-30T08:04:02;51.40;41.60;30.00
35654;PMS1003;21773;50.010;19.972;2024-01-30T08:07:06;50.20;41.00;31.00
35654;PMS1003;21773;50.010;19.972;2024-01-30T08:10:11;49.60;41.00;30.60
35654;PMS1003;21773;50.010;19.972;2024-01-30T08:13:16;50.00;41.00;31.00
35654;PMS1003;21773;50.010;19.972;2024-01-30T08:16:19;52.00;42.00;31.75
35654;PMS1003;21773;50.010;19.972;2024-01-30T08:19:23;48.00;39.00;29.80
35654;PMS1003;21773;50.010;19.972;2024-01-30T08:22:26;49.00;40.40;31.00
35654;PMS1003;21773;50.010;19.972;2024-01-30T08:25:30;49.00;41.00;30.50
35654;PMS1003;21773;50.010;19.972;2024-01-30T08:28:34;51.60;41.00;31.00
35654;PMS1003;21773;50.010;19.972;2024-01-30T08:31:37;47.00;38.00;29.00
35654;PMS1003;21773;50.010;19.972;2024-01-30T08:34:41;46.60;39.60;30.00
35654;PMS1003;21773;50.010;19.972;2024-01-30T08:37:44;47.40;40.00;30.00
35654;PMS1003;21773;50.010;19.972;2024-01-30T08:40:47;49.80;40.00;30.00
35654;PMS1003;21773;50.010;19.972;2024-01-30T08:43:52;49.80;39.40;30.00
35654;PMS1003;21773;50.010;19.972;2024-01-30T08:46:55;49.20;41.00;31.00
35654;PMS1003;21773;50.010;19.972;2024-01-30T08:50:00;56.00;44.00;33.00
35654;PMS1003;21773;50.010;19.972;2024-01-30T08:53:04;58.80;46.00;35.00
35654;PMS1003;21773;50.010;19.972;2024-01-30T08:56:07;58.00;47.00;35.00
35654;PMS1003;21773;50.010;19.972;2024-01-30T08:59:12;57.00;46.00;35.00
35654;PMS1003;21773;50.010;19.972;2024-01-30T09:02:15;58.80;47.80;36.60
35654;PMS1003;21773;50.010;19.972;2024-01-30T09:05:20;57.60;46.00;34.20
35654;PMS1003;21773;50.010;19.972;2024-01-30T09:08:23;57.00;46.00;35.00
35654;PMS1003;21773;50.010;19.972;2024-01-30T09:11:26;58.00;48.00;35.00
35654;PMS1003;21773;50.010;19.972;2024-01-30T09:14:34;58.75;46.75;35.00
35654;PMS1003;21773;50.010;19.972;2024-01-30T09:17:37;58.00;47.00;35.00
35654;PMS1003;21773;50.010;19.972;2024-01-30T09:20:40;56.50;46.00;35.00
35654;PMS1003;21773;50.010;19.972;2024-01-30T09:23:43;55.00;46.00;34.00
35654;PMS1003;21773;50.010;19.972;2024-01-30T09:26:46;60.20;47.00;35.00
35654;PMS1003;21773;50.010;19.972;2024-01-30T09:29:51;58.00;46.00;34.80
35654;PMS1003;21773;50.010;19.972;2024-01-30T09:32:54;57.25;46.00;35.00
35654;PMS1003;21773;50.010;19.972;2024-01-30T09:35:57;61.40;47.40;35.00
35654;PMS1003;21773;50.010;19.972;2024-01-30T09:39:00;59.00;48.00;37.00
35654;PMS1003;21773;50.010;19.972;2024-01-30T09:42:05;59.00;48.00;35.00
35654;PMS1003;21773;50.010;19.972;2024-01-30T09:45:15;61.25;48.00;35.25
35654;PMS1003;21773;50.010;19.972;2024-01-30T09:48:21;57.40;46.40;35.00
35654;PMS1003;21773;50.010;19.972;2024-01-30T09:51:25;58.00;47.00;35.00
35654;PMS1003;21773;50.010;19.972;2024-01-30T09:54:30;58.75;47.00;35.00
35654;PMS1003;21773;50.010;19.972;2024-01-30T09:57:38;60.40;47.20;35.80
35654;PMS1003;21773;50.010;19.972;2024-01-30T10:00:43;57.00;45.50;34.00
35654;PMS1003;21773;50.010;19.972;2024-01-30T10:03:46;50.40;41.20;31.00
35654;PMS1003;21773;50.010;19.972;2024-01-30T10:06:50;49.60;40.00;30.00
35654;PMS1003;21773;50.010;19.972;2024-01-30T10:09:53;45.00;38.00;30.00
35654;PMS1003;21773;50.010;19.972;2024-01-30T10:12:58;45.60;39.00;29.00
35654;PMS1003;21773;50.010;19.972;2024-01-30T10:16:07;43.00;35.50;27.00
35654;PMS1003;21773;50.010;19.972;2024-01-30T10:19:10;43.20;36.00;28.00
35654;PMS1003;21773;50.010;19.972;2024-01-30T10:22:13;41.00;34.60;27.00
35654;PMS1003;21773;50.010;19.972;2024-01-30T10:25:17;40.40;33.40;26.40
35654;PMS1003;21773;50.010;19.972;2024-01-30T10:28:21;35.00;32.00;24.00
35654;PMS1003;21773;50.010;19.972;2024-01-30T10:31:26;34.60;32.00;24.60
35654;PMS1003;21773;50.010;19.972;2024-01-30T10:34:29;38.60;33.60;27.00
35654;PMS1003;21773;50.010;19.972;2024-01-30T10:37:33;42.40;35.40;27.00
35654;PMS1003;21773;50.010;19.972;2024-01-30T10:40:37;40.20;35.00;27.00
35654;PMS1003;21773;50.010;19.972;2024-01-30T10:43:41;39.00;33.33;26.00
35654;PMS1003;21773;50.010;19.972;2024-01-30T10:46:53;36.25;33.00;25.25
35654;PMS1003;21773;50.010;19.972;2024-01-30T10:50:03;43.00;35.00;27.00
35654;PMS1003;21773;50.010;19.972;2024-01-30T10:53:07;41.00;35.00;26.60
35654;PMS1003;21773;50.010;19.972;2024-01-30T10:56:11;35.60;32.00;25.40
35654;PMS1003;21773;50.010;19.972;2024-01-30T10:59:15;43.20;35.60;27.00
35654;PMS1003;21773;50.010;19.972;2024-01-30T11:02:20;42.20;35.60;27.00
35654;PMS1003;21773;50.010;19.972;2024-01-30T11:05:25;40.00;34.60;26.00
35654;PMS1003;21773;50.010;19.972;2024-01-30T11:08:34;41.00;35.00;28.00
35654;PMS1003;21773;50.010;19.972;2024-01-30T11:11:50;38.20;33.20;26.00
35654;PMS1003;21773;50.010;19.972;2024-01-30T11:15:04;38.50;33.00;26.00
35654;PMS1003;21773;50.010;19.972;2024-01-30T11:18:10;35.20;31.80;25.00
35654;PMS1003;21773;50.010;19.972;2024-01-30T11:21:13;38.00;33.00;25.60
35654;PMS1003;21773;50.010;19.972;2024-01-30T11:24:16;37.00;32.20;24.60
35654;PMS1003;21773;50.010;19.972;2024-01-30T11:27:21;39.00;33.50;26.00
35654;PMS1003;21773;50.010;19.972;2024-01-30T11:30:25;37.80;32.80;25.20
35654;PMS1003;21773;50.010;19.972;2024-01-30T11:33:30;39.40;33.00;27.00
35654;PMS1003;21773;50.010;19.972;2024-01-30T11:36:35;41.75;35.00;27.75
35654;PMS1003;21773;50.010;19.972;2024-01-30T11:39:40;38.40;32.40;25.40
35654;PMS1003;21773;50.010;19.972;2024-01-30T11:42:45;38.00;33.00;26.00
35654;PMS1003;21773;50.010;19.972;2024-01-30T11:45:50;38.00;32.00;25.00
35654;PMS1003;21773;50.010;19.972;2024-01-30T11:48:55;32.00;30.40;24.00
35654;PMS1003;21773;50.010;19.972;2024-01-30T11:51:58;34.40;31.60;24.00
35654;PMS1003;21773;50.010;19.972;2024-01-30T11:55:02;34.60;32.00;26.00
35654;PMS1003;21773;50.010;19.972;2024-01-30T11:58:05;36.00;32.20;25.80
35654;PMS1003;21773;50.010;19.972;2024-01-30T12:01:08;31.00;29.00;23.00
35654;PMS1003;21773;50.010;19.972;2024-01-30T12:04:13;33.60;31.00;24.00
35654;PMS1003;21773;50.010;19.972;2024-01-30T12:07:16;35.20;30.00;23.40
35654;PMS1003;21773;50.010;19.972;2024-01-30T12:10:20;33.00;30.00;23.00
35654;PMS1003;21773;50.010;19.972;2024-01-30T12:13:24;35.75;31.00;24.00
35654;PMS1003;21773;50.010;19.972;2024-01-30T12:16:33;32.00;30.00;23.00
35654;PMS1003;21773;50.010;19.972;2024-01-30T12:19:38;32.00;30.00;23.00
35654;PMS1003;21773;50.010;19.972;2024-01-30T12:22:41;32.40;30.00;23.00
35654;PMS1003;21773;50.010;19.972;2024-01-30T12:25:45;31.60;28.00;22.00
35654;PMS1003;21773;50.010;19.972;2024-01-30T12:28:48;30.00;28.00;22.00
35654;PMS1003;21773;50.010;19.972;2024-01-30T12:31:53;30.80;27.00;22.00
35654;PMS1003;21773;50.010;19.972;2024-01-30T12:35:00;30.50;27.50;22.00
35654;PMS1003;21773;50.010;19.972;2024-01-30T12:38:04;36.80;31.80;24.00
35654;PMS1003;21773;50.010;19.972;2024-01-30T12:41:07;31.00;29.60;23.00
35654;PMS1003;21773;50.010;19.972;2024-01-30T12:44:13;32.75;29.50;23.00
35654;PMS1003;21773;50.010;19.972;2024-01-30T12:47:16;31.40;30.00;23.00
35654;PMS1003;21773;50.010;19.972;2024-01-30T12:50:21;33.40;30.00;23.00
35654;PMS1003;21773;50.010;19.972;2024-01-30T12:53:24;40.00;35.00;26.00
35654;PMS1003;21773;50.010;19.972;2024-01-30T12:56:27;39.40;33.00;25.40
35654;PMS1003;21773;50.010;19.972;2024-01-30T12:59:30;39.50;33.75;25.75
35654;PMS1003;21773;50.010;19.972;2024-01-30T13:02:34;39.60;34.20;25.60
35654;PMS1003;21773;50.010;19.972;2024-01-30T13:05:39;41.00;34.00;26.00
35654;PMS1003;21773;50.010;19.972;2024-01-30T13:08:43;40.00;35.00;26.50
35654;PMS1003;21773;50.010;19.972;2024-01-30T13:11:46;46.00;38.00;28.00
35654;PMS1003;21773;50.010;19.972;2024-01-30T13:14:49;42.00;35.00;27.00
35654;PMS1003;21773;50.010;19.972;2024-01-30T13:17:52;41.40;35.00;28.00
35654;PMS1003;21773;50.010;19.972;2024-01-30T13:20:58;47.00;36.00;27.80
35654;PMS1003;21773;50.010;19.972;2024-01-30T13:24:01;45.00;38.00;28.00
35654;PMS1003;21773;50.010;19.972;2024-01-30T13:27:04;47.00;38.00;29.00
35654;PMS1003;21773;50.010;19.972;2024-01-30T13:30:09;49.00;38.00;28.00
35654;PMS1003;21773;50.010;19.972;2024-01-30T13:33:12;44.00;37.00;27.00
35654;PMS1003;21773;50.010;19.972;2024-01-30T13:36:17;46.00;38.00;28.00
35654;PMS1003;21773;50.010;19.972;2024-01-30T13:39:20;46.20;38.00;28.00
35654;PMS1003;21773;50.010;19.972;2024-01-30T13:42:26;45.00;38.00;29.00
35654;PMS1003;21773;50.010;19.972;2024-01-30T13:45:30;45.75;38.00;28.00
35654;PMS1003;21773;50.010;19.972;2024-01-30T13:48:33;41.80;35.40;27.00
35654;PMS1003;21773;50.010;19.972;2024-01-30T13:51:37;45.00;36.00;27.00
35654;PMS1003;21773;50.010;19.972;2024-01-30T13:54:41;43.00;36.00;27.00
35654;PMS1003;21773;50.010;19.972;2024-01-30T13:57:44;48.00;38.20;28.00
35654;PMS1003;21773;50.010;19.972;2024-01-30T14:00:50;48.60;38.00;28.00
35654;PMS1003;21773;50.010;19.972;2024-01-30T14:03:54;50.50;41.50;30.50
35654;PMS1003;21773;50.010;19.972;2024-01-30T14:06:58;52.00;42.00;31.00
35654;PMS1003;21773;50.010;19.972;2024-01-30T14:10:06;54.60;43.00;31.20
35654;PMS1003;21773;50.010;19.972;2024-01-30T14:13:14;52.00;43.00;31.00
35654;PMS1003;21773;50.010;19.972;2024-01-30T14:16:17;50.00;41.00;31.00
35654;PMS1003;21773;50.010;19.972;2024-01-30T14:19:21;52.60;41.80;31.40
35654;PMS1003;21773;50.010;19.972;2024-01-30T14:22:26;52.50;42.00;31.00
35654;PMS1003;21773;50.010;19.972;2024-01-30T14:25:29;49.60;41.00;31.00
35654;PMS1003;21773;50.010;19.972;2024-01-30T14:28:32;53.00;43.00;33.00
35654;PMS1003;21773;50.010;19.972;2024-01-30T14:31:35;57.00;45.00;33.00
35654;PMS1003;21773;50.010;19.972;2024-01-30T14:34:38;57.60;45.00;33.00
35654;PMS1003;21773;50.010;19.972;2024-01-30T14:37:43;56.00;45.00;33.00
35654;PMS1003;21773;50.010;19.972;2024-01-30T14:40:46;56.80;44.00;32.80
35654;PMS1003;21773;50.010;19.972;2024-01-30T14:43:49;59.20;46.80;34.80
35654;PMS1003;21773;50.010;19.972;2024-01-30T14:46:52;57.00;46.00;33.00
35654;PMS1003;21773;50.010;19.972;2024-01-30T14:49:56;54.00;44.00;33.00
35654;PMS1003;21773;50.010;19.972;2024-01-30T14:53:01;55.00;45.00;33.00
35654;PMS1003;21773;50.010;19.972;2024-01-30T14:56:04;56.00;45.00;33.00
35654;PMS1003;21773;50.010;19.972;2024-01-30T14:59:08;60.00;48.00;35.00
35654;PMS1003;21773;50.010;19.972;2024-01-30T15:02:12;58.00;46.50;34.00
35654;PMS1003;21773;50.010;19.972;2024-01-30T15:05:16;58.00;46.50;34.00
35654;PMS1003;21773;50.010;19.972;2024-01-30T15:08:20;58.00;46.00;35.00
35654;PMS1003;21773;50.010;19.972;2024-01-30T15:11:24;57.25;45.75;33.00
35654;PMS1003;21773;50.010;19.972;2024-01-30T15:14:27;60.00;47.00;35.00
35654;PMS1003;21773;50.010;19.972;2024-01-30T15:17:30;60.00;47.80;35.00
35654;PMS1003;21773;50.010;19.972;2024-01-30T15:20:33;57.00;45.40;34.00
35654;PMS1003;21773;50.010;19.972;2024-01-30T15:23:38;60.75;47.50;34.50
35654;PMS1003;21773;50.010;19.972;2024-01-30T15:26:41;55.50;43.75;32.75
35654;PMS1003;21773;50.010;19.972;2024-01-30T15:29:44;54.80;43.20;33.00
35654;PMS1003;21773;50.010;19.972;2024-01-30T15:32:47;59.20;46.00;34.20
35654;PMS1003;21773;50.010;19.972;2024-01-30T15:35:50;58.00;46.00;33.60
35654;PMS1003;21773;50.010;19.972;2024-01-30T15:38:55;59.80;45.80;33.00
35654;PMS1003;21773;50.010;19.972;2024-01-30T15:41:58;60.00;46.00;34.00
35654;PMS1003;21773;50.010;19.972;2024-01-30T15:45:01;57.60;46.00;34.00
35654;PMS1003;21773;50.010;19.972;2024-01-30T15:48:05;57.00;45.50;34.00
35654;PMS1003;21773;50.010;19.972;2024-01-30T15:51:08;58.75;45.75;33.75
35654;PMS1003;21773;50.010;19.972;2024-01-30T15:54:13;60.50;46.00;34.00
35654;PMS1003;21773;50.010;19.972;2024-01-30T15:57:16;55.25;44.00;33.00
35654;PMS1003;21773;50.010;19.972;2024-01-30T16:00:19;57.00;44.20;33.00
35654;PMS1003;21773;50.010;19.972;2024-01-30T16:03:22;53.80;43.20;32.20
35654;PMS1003;21773;50.010;19.972;2024-01-30T16:06:26;56.67;45.00;34.00
35654;PMS1003;21773;50.010;19.972;2024-01-30T16:09:31;57.00;43.00;33.00
35654;PMS1003;21773;50.010;19.972;2024-01-30T16:12:34;53.00;44.00;33.00
35654;PMS1003;21773;50.010;19.972;2024-01-30T16:15:37;52.00;42.00;31.00
35654;PMS1003;21773;50.010;19.972;2024-01-30T16:19:00;53.00;41.25;31.00
35654;PMS1003;21773;50.010;19.972;2024-01-30T16:22:22;52.00;43.00;33.00
35654;PMS1003;21773;50.010;19.972;2024-01-30T16:25:46;52.00;43.00;33.00
35654;PMS1003;21773;50.010;19.972;2024-01-30T16:29:08;51.20;41.60;31.60
35654;PMS1003;21773;50.010;19.972;2024-01-30T16:32:30;50.00;41.00;31.00
35654;PMS1003;21773;50.010;19.972;2024-01-30T16:35:53;57.40;44.00;33.00
35654;PMS1003;21773;50.010;19.972;2024-01-30T16:39:14;57.00;45.00;33.00
35654;PMS1003;21773;50.010;19.972;2024-01-30T16:42:37;54.60;44.00;34.00
35654;PMS1003;21773;50.010;19.972;2024-01-30T16:45:59;56.60;44.60;32.00
35654;PMS1003;21773;50.010;19.972;2024-01-30T16:49:23;57.40;45.60;33.80
35654;PMS1003;21773;50.010;19.972;2024-01-30T16:52:46;52.20;42.20;31.80
35654;PMS1003;21773;50.010;19.972;2024-01-30T16:56:11;56.00;44.00;32.60
35654;PMS1003;21773;50.010;19.972;2024-01-30T16:59:35;58.25;45.00;34.00